sensor_id;sensor_type;location;lat;lon;timestamp;P1;durP1;ratioP1;P2;durP2;ratioP2
80115;SDS011;69423;47.608;19.366;2023-04-24T00:00:20;15.03;;;15.03;;
80115;SDS011;69423;47.608;19.366;2023-04-24T00:00:51;14.73;;;14.73;;
80115;SDS011;69423;47.608;19.366;2023-04-24T00:01:22;14.57;;;14.57;;
80115;SDS011;69423;47.608;19.366;2023-04-24T00:01:54;15.57;;;15.57;;
80115;SDS011;69423;47.608;19.366;2023-04-24T00:02:25;15.90;;;15.90;;
80115;SDS011;69423;47.608;19.366;2023-04-24T00:02:56;15.00;;;15.00;;
80115;SDS011;69423;47.608;19.366;2023-04-24T00:03:28;15.00;;;15.00;;
80115;SDS011;69423;47.608;19.366;2023-04-24T00:03:59;15.27;;;15.27;;
80115;SDS011;69423;47.608;19.366;2023-04-24T00:04:30;15.93;;;15.93;;
80115;SDS011;69423;47.608;19.366;2023-04-24T00:05:02;14.97;;;14.97;;
80115;SDS011;69423;47.608;19.366;2023-04-24T00:05:33;15.80;;;15.80;;
80115;SDS011;69423;47.608;19.366;2023-04-24T00:06:04;16.23;;;16.23;;
80115;SDS011;69423;47.608;19.366;2023-04-24T00:06:37;15.40;;;15.40;;
80115;SDS011;69423;47.608;19.366;2023-04-24T00:07:09;14.83;;;14.83;;
80115;SDS011;69423;47.608;19.366;2023-04-24T00:07:40;15.10;;;14.87;;
80115;SDS011;69423;47.608;19.366;2023-04-24T00:08:12;15.67;;;15.57;;
80115;SDS011;69423;47.608;19.366;2023-04-24T00:08:42;15.60;;;15.60;;
80115;SDS011;69423;47.608;19.366;2023-04-24T00:09:13;15.37;;;15.37;;
80115;SDS011;69423;47.608;19.366;2023-04-24T00:09:46;15.00;;;15.00;;
80115;SDS011;69423;47.608;19.366;2023-04-24T00:10:17;18.97;;;18.97;;
80115;SDS011;69423;47.608;19.366;2023-04-24T00:10:48;16.07;;;16.07;;
80115;SDS011;69423;47.608;19.366;2023-04-24T00:11:18;15.73;;;15.70;;
80115;SDS011;69423;47.608;19.366;2023-04-24T00:11:50;14.67;;;14.67;;
80115;SDS011;69423;47.608;19.366;2023-04-24T00:12:21;18.77;;;18.60;;
80115;SDS011;69423;47.608;19.366;2023-04-24T00:12:52;16.40;;;16.40;;
80115;SDS011;69423;47.608;19.366;2023-04-24T00:13:23;16.77;;;16.77;;
80115;SDS011;69423;47.608;19.366;2023-04-24T00:13:54;14.93;;;14.93;;
80115;SDS011;69423;47.608;19.366;2023-04-24T00:14:24;14.77;;;14.77;;
80115;SDS011;69423;47.608;19.366;2023-04-24T00:14:55;17.17;;;17.17;;
80115;SDS011;69423;47.608;19.366;2023-04-24T00:15:26;17.10;;;17.03;;
80115;SDS011;69423;47.608;19.366;2023-04-24T00:15:57;16.20;;;16.17;;
80115;SDS011;69423;47.608;19.366;2023-04-24T00:16:28;15.57;;;15.57;;
80115;SDS011;69423;47.608;19.366;2023-04-24T00:16:59;15.57;;;15.57;;
80115;SDS011;69423;47.608;19.366;2023-04-24T00:17:30;15.77;;;15.53;;
80115;SDS011;69423;47.608;19.366;2023-04-24T00:18:01;19.40;;;19.30;;
80115;SDS011;69423;47.608;19.366;2023-04-24T00:18:32;17.07;;;17.07;;
80115;SDS011;69423;47.608;19.366;2023-04-24T00:19:03;16.17;;;16.17;;
80115;SDS011;69423;47.608;19.366;2023-04-24T00:19:36;15.47;;;15.47;;
80115;SDS011;69423;47.608;19.366;2023-04-24T00:20:07;16.70;;;16.47;;
80115;SDS011;69423;47.608;19.366;2023-04-24T00:20:38;15.43;;;15.33;;
80115;SDS011;69423;47.608;19.366;2023-04-24T00:21:10;15.60;;;15.47;;
80115;SDS011;69423;47.608;19.366;2023-04-24T00:21:41;16.33;;;15.97;;
80115;SDS011;69423;47.608;19.366;2023-04-24T00:22:12;16.00;;;15.97;;
80115;SDS011;69423;47.608;19.366;2023-04-24T00:22:46;16.10;;;16.10;;
80115;SDS011;69423;47.608;19.366;2023-04-24T00:23:17;15.70;;;15.70;;
80115;SDS011;69423;47.608;19.366;2023-04-24T00:23:47;16.47;;;16.47;;
80115;SDS011;69423;47.608;19.366;2023-04-24T00:24:18;16.07;;;16.07;;
80115;SDS011;69423;47.608;19.366;2023-04-24T00:24:49;16.27;;;16.27;;
80115;SDS011;69423;47.608;19.366;2023-04-24T00:25:20;16.50;;;16.50;;
80115;SDS011;69423;47.608;19.366;2023-04-24T00:25:51;16.27;;;16.27;;
80115;SDS011;69423;47.608;19.366;2023-04-24T00:26:22;16.30;;;16.30;;
80115;SDS011;69423;47.608;19.366;2023-04-24T00:26:53;16.07;;;16.07;;
80115;SDS011;69423;47.608;19.366;2023-04-24T00:27:24;16.07;;;16.07;;
80115;SDS011;69423;47.608;19.366;2023-04-24T00:27:55;18.53;;;18.53;;
80115;SDS011;69423;47.608;19.366;2023-04-24T00:28:26;18.47;;;18.47;;
80115;SDS011;69423;47.608;19.366;2023-04-24T00:28:57;17.50;;;17.50;;
80115;SDS011;69423;47.608;19.366;2023-04-24T00:29:28;16.83;;;16.83;;
80115;SDS011;69423;47.608;19.366;2023-04-24T00:29:59;17.30;;;17.30;;
80115;SDS011;69423;47.608;19.366;2023-04-24T00:30:30;17.27;;;17.27;;
80115;SDS011;69423;47.608;19.366;2023-04-24T00:31:01;17.13;;;17.13;;
80115;SDS011;69423;47.608;19.366;2023-04-24T00:31:32;16.77;;;16.77;;
80115;SDS011;69423;47.608;19.366;2023-04-24T00:32:05;16.67;;;16.60;;
80115;SDS011;69423;47.608;19.366;2023-04-24T00:32:36;16.80;;;16.80;;
80115;SDS011;69423;47.608;19.366;2023-04-24T00:33:06;17.03;;;17.03;;
80115;SDS011;69423;47.608;19.366;2023-04-24T00:33:37;17.37;;;17.33;;
80115;SDS011;69423;47.608;19.366;2023-04-24T00:34:09;18.20;;;18.20;;
80115;SDS011;69423;47.608;19.366;2023-04-24T00:34:42;17.77;;;17.77;;
80115;SDS011;69423;47.608;19.366;2023-04-24T00:35:12;18.57;;;18.57;;
80115;SDS011;69423;47.608;19.366;2023-04-24T00:35:44;18.30;;;18.30;;
80115;SDS011;69423;47.608;19.366;2023-04-24T00:36:15;19.53;;;19.23;;
80115;SDS011;69423;47.608;19.366;2023-04-24T00:36:46;19.40;;;19.10;;
80115;SDS011;69423;47.608;19.366;2023-04-24T00:37:19;19.23;;;19.13;;
80115;SDS011;69423;47.608;19.366;2023-04-24T00:37:50;19.73;;;19.73;;
80115;SDS011;69423;47.608;19.366;2023-04-24T00:38:21;19.40;;;19.40;;
80115;SDS011;69423;47.608;19.366;2023-04-24T00:38:52;20.13;;;20.10;;
80115;SDS011;69423;47.608;19.366;2023-04-24T00:39:24;19.33;;;19.33;;
80115;SDS011;69423;47.608;19.366;2023-04-24T00:39:55;19.27;;;19.27;;
80115;SDS011;69423;47.608;19.366;2023-04-24T00:40:26;19.23;;;19.23;;
80115;SDS011;69423;47.608;19.366;2023-04-24T00:40:58;18.97;;;18.97;;
80115;SDS011;69423;47.608;19.366;2023-04-24T00:41:29;19.60;;;19.47;;
80115;SDS011;69423;47.608;19.366;2023-04-24T00:42:00;19.57;;;19.57;;
80115;SDS011;69423;47.608;19.366;2023-04-24T00:42:32;19.43;;;19.43;;
80115;SDS011;69423;47.608;19.366;2023-04-24T00:43:03;19.73;;;19.37;;
80115;SDS011;69423;47.608;19.366;2023-04-24T00:43:34;20.57;;;20.10;;
80115;SDS011;69423;47.608;19.366;2023-04-24T00:44:05;18.63;;;18.60;;
80115;SDS011;69423;47.608;19.366;2023-04-24T00:44:36;18.17;;;18.13;;
80115;SDS011;69423;47.608;19.366;2023-04-24T00:45:07;19.90;;;19.80;;
80115;SDS011;69423;47.608;19.366;2023-04-24T00:45:39;20.30;;;20.17;;
80115;SDS011;69423;47.608;19.366;2023-04-24T00:46:10;18.60;;;18.50;;
80115;SDS011;69423;47.608;19.366;2023-04-24T00:46:41;18.83;;;18.80;;
80115;SDS011;69423;47.608;19.366;2023-04-24T00:47:12;19.40;;;19.13;;
80115;SDS011;69423;47.608;19.366;2023-04-24T00:47:45;20.00;;;19.67;;
80115;SDS011;69423;47.608;19.366;2023-04-24T00:48:16;20.43;;;20.40;;
80115;SDS011;69423;47.608;19.366;2023-04-24T00:48:47;18.93;;;18.90;;
80115;SDS011;69423;47.608;19.366;2023-04-24T00:49:18;18.97;;;18.90;;
80115;SDS011;69423;47.608;19.366;2023-04-24T00:49:49;18.63;;;18.57;;
80115;SDS011;69423;47.608;19.366;2023-04-24T00:50:20;19.87;;;19.67;;
80115;SDS011;69423;47.608;19.366;2023-04-24T00:50:51;19.70;;;19.67;;
80115;SDS011;69423;47.608;19.366;2023-04-24T00:51:22;18.87;;;18.83;;
80115;SDS011;69423;47.608;19.366;2023-04-24T00:51:54;18.80;;;18.80;;
80115;SDS011;69423;47.608;19.366;2023-04-24T00:52:27;17.97;;;17.93;;
80115;SDS011;69423;47.608;19.366;2023-04-24T00:52:58;18.40;;;18.17;;
80115;SDS011;69423;47.608;19.366;2023-04-24T00:53:29;18.10;;;18.07;;
80115;SDS011;69423;47.608;19.366;2023-04-24T00:54:00;19.00;;;18.93;;
80115;SDS011;69423;47.608;19.366;2023-04-24T00:54:31;19.60;;;19.53;;
80115;SDS011;69423;47.608;19.366;2023-04-24T00:55:02;20.17;;;20.00;;
80115;SDS011;69423;47.608;19.366;2023-04-24T00:55:33;20.93;;;20.83;;
80115;SDS011;69423;47.608;19.366;2023-04-24T00:56:07;20.50;;;20.47;;
80115;SDS011;69423;47.608;19.366;2023-04-24T00:56:38;20.13;;;19.67;;
80115;SDS011;69423;47.608;19.366;2023-04-24T00:57:10;20.93;;;20.30;;
80115;SDS011;69423;47.608;19.366;2023-04-24T00:57:41;24.27;;;23.60;;
80115;SDS011;69423;47.608;19.366;2023-04-24T00:58:13;20.13;;;19.87;;
80115;SDS011;69423;47.608;19.366;2023-04-24T00:58:44;21.03;;;20.70;;
80115;SDS011;69423;47.608;19.366;2023-04-24T00:59:18;20.90;;;20.80;;
80115;SDS011;69423;47.608;19.366;2023-04-24T00:59:49;21.60;;;21.33;;
80115;SDS011;69423;47.608;19.366;2023-04-24T01:00:21;21.73;;;21.17;;
80115;SDS011;69423;47.608;19.366;2023-04-24T01:00:53;20.83;;;20.37;;
80115;SDS011;69423;47.608;19.366;2023-04-24T01:01:25;20.93;;;20.43;;
80115;SDS011;69423;47.608;19.366;2023-04-24T01:01:56;19.60;;;19.43;;
80115;SDS011;69423;47.608;19.366;2023-04-24T01:02:28;19.60;;;19.60;;
80115;SDS011;69423;47.608;19.366;2023-04-24T01:02:59;19.10;;;18.93;;
80115;SDS011;69423;47.608;19.366;2023-04-24T01:03:35;19.63;;;19.43;;
80115;SDS011;69423;47.608;19.366;2023-04-24T01:04:09;19.90;;;19.67;;
80115;SDS011;69423;47.608;19.366;2023-04-24T01:04:41;19.20;;;19.20;;
80115;SDS011;69423;47.608;19.366;2023-04-24T01:05:13;18.47;;;18.47;;
80115;SDS011;69423;47.608;19.366;2023-04-24T01:05:45;18.50;;;18.50;;
80115;SDS011;69423;47.608;19.366;2023-04-24T01:06:16;19.90;;;19.83;;
80115;SDS011;69423;47.608;19.366;2023-04-24T01:06:49;20.13;;;20.13;;
80115;SDS011;69423;47.608;19.366;2023-04-24T01:07:21;19.60;;;19.60;;
80115;SDS011;69423;47.608;19.366;2023-04-24T01:07:52;19.93;;;19.87;;
80115;SDS011;69423;47.608;19.366;2023-04-24T01:08:23;19.63;;;19.63;;
80115;SDS011;69423;47.608;19.366;2023-04-24T01:08:56;19.03;;;19.03;;
80115;SDS011;69423;47.608;19.366;2023-04-24T01:09:28;21.70;;;21.60;;
80115;SDS011;69423;47.608;19.366;2023-04-24T01:10:00;19.00;;;18.90;;
80115;SDS011;69423;47.608;19.366;2023-04-24T01:10:31;18.17;;;18.17;;
80115;SDS011;69423;47.608;19.366;2023-04-24T01:11:04;19.40;;;19.20;;
80115;SDS011;69423;47.608;19.366;2023-04-24T01:11:36;19.53;;;19.10;;
80115;SDS011;69423;47.608;19.366;2023-04-24T01:12:07;20.57;;;20.00;;
80115;SDS011;69423;47.608;19.366;2023-04-24T01:12:38;19.93;;;19.73;;
80115;SDS011;69423;47.608;19.366;2023-04-24T01:13:09;18.57;;;18.57;;
80115;SDS011;69423;47.608;19.366;2023-04-24T01:13:40;18.80;;;18.70;;
80115;SDS011;69423;47.608;19.366;2023-04-24T01:14:11;18.90;;;18.63;;
80115;SDS011;69423;47.608;19.366;2023-04-24T01:14:42;18.53;;;18.47;;
80115;SDS011;69423;47.608;19.366;2023-04-24T01:15:13;19.30;;;19.30;;
80115;SDS011;69423;47.608;19.366;2023-04-24T01:15:45;19.27;;;19.27;;
80115;SDS011;69423;47.608;19.366;2023-04-24T01:16:16;19.30;;;19.30;;
80115;SDS011;69423;47.608;19.366;2023-04-24T01:16:47;18.70;;;18.70;;
80115;SDS011;69423;47.608;19.366;2023-04-24T01:17:18;18.73;;;18.73;;
80115;SDS011;69423;47.608;19.366;2023-04-24T01:17:49;19.53;;;19.53;;
80115;SDS011;69423;47.608;19.366;2023-04-24T01:18:20;19.60;;;19.60;;
80115;SDS011;69423;47.608;19.366;2023-04-24T01:18:52;19.63;;;19.63;;
80115;SDS011;69423;47.608;19.366;2023-04-24T01:19:23;19.60;;;19.47;;
80115;SDS011;69423;47.608;19.366;2023-04-24T01:19:54;19.60;;;19.60;;
80115;SDS011;69423;47.608;19.366;2023-04-24T01:20:27;18.33;;;18.33;;
80115;SDS011;69423;47.608;19.366;2023-04-24T01:20:59;19.20;;;18.97;;
80115;SDS011;69423;47.608;19.366;2023-04-24T01:21:34;19.93;;;19.43;;
80115;SDS011;69423;47.608;19.366;2023-04-24T01:22:10;19.37;;;18.87;;
80115;SDS011;69423;47.608;19.366;2023-04-24T01:22:44;18.87;;;18.73;;
80115;SDS011;69423;47.608;19.366;2023-04-24T01:23:15;19.93;;;19.63;;
80115;SDS011;69423;47.608;19.366;2023-04-24T01:23:46;19.03;;;19.03;;
80115;SDS011;69423;47.608;19.366;2023-04-24T01:24:17;19.23;;;19.23;;
80115;SDS011;69423;47.608;19.366;2023-04-24T01:24:50;19.33;;;19.27;;
80115;SDS011;69423;47.608;19.366;2023-04-24T01:25:23;19.60;;;19.17;;
80115;SDS011;69423;47.608;19.366;2023-04-24T01:25:56;19.73;;;19.33;;
80115;SDS011;69423;47.608;19.366;2023-04-24T01:26:27;17.80;;;17.80;;
80115;SDS011;69423;47.608;19.366;2023-04-24T01:26:58;18.10;;;18.10;;
80115;SDS011;69423;47.608;19.366;2023-04-24T01:27:29;18.30;;;18.30;;
80115;SDS011;69423;47.608;19.366;2023-04-24T01:28:00;18.87;;;18.87;;
80115;SDS011;69423;47.608;19.366;2023-04-24T01:28:31;19.57;;;19.57;;
80115;SDS011;69423;47.608;19.366;2023-04-24T01:29:02;18.70;;;18.70;;
80115;SDS011;69423;47.608;19.366;2023-04-24T01:29:33;19.40;;;19.10;;
80115;SDS011;69423;47.608;19.366;2023-04-24T01:30:05;19.53;;;19.27;;
80115;SDS011;69423;47.608;19.366;2023-04-24T01:30:37;19.60;;;19.37;;
80115;SDS011;69423;47.608;19.366;2023-04-24T01:31:08;19.20;;;19.20;;
80115;SDS011;69423;47.608;19.366;2023-04-24T01:31:39;19.60;;;19.57;;
80115;SDS011;69423;47.608;19.366;2023-04-24T01:32:10;19.07;;;19.03;;
80115;SDS011;69423;47.608;19.366;2023-04-24T01:32:41;19.17;;;19.10;;
80115;SDS011;69423;47.608;19.366;2023-04-24T01:33:14;19.30;;;19.30;;
80115;SDS011;69423;47.608;19.366;2023-04-24T01:33:46;18.40;;;18.37;;
80115;SDS011;69423;47.608;19.366;2023-04-24T01:34:18;18.90;;;18.73;;
80115;SDS011;69423;47.608;19.366;2023-04-24T01:34:49;19.93;;;19.73;;
80115;SDS011;69423;47.608;19.366;2023-04-24T01:35:21;21.03;;;20.67;;
80115;SDS011;69423;47.608;19.366;2023-04-24T01:35:52;20.73;;;20.23;;
80115;SDS011;69423;47.608;19.366;2023-04-24T01:36:24;19.13;;;18.67;;
80115;SDS011;69423;47.608;19.366;2023-04-24T01:36:59;19.43;;;19.13;;
80115;SDS011;69423;47.608;19.366;2023-04-24T01:37:30;20.27;;;19.97;;
80115;SDS011;69423;47.608;19.366;2023-04-24T01:38:03;18.87;;;18.60;;
80115;SDS011;69423;47.608;19.366;2023-04-24T01:38:34;18.07;;;17.93;;
80115;SDS011;69423;47.608;19.366;2023-04-24T01:39:05;17.93;;;17.90;;
80115;SDS011;69423;47.608;19.366;2023-04-24T01:39:36;19.00;;;18.93;;
80115;SDS011;69423;47.608;19.366;2023-04-24T01:40:07;19.70;;;19.70;;
80115;SDS011;69423;47.608;19.366;2023-04-24T01:40:39;18.93;;;18.93;;
80115;SDS011;69423;47.608;19.366;2023-04-24T01:41:10;18.13;;;18.00;;
80115;SDS011;69423;47.608;19.366;2023-04-24T01:41:41;19.47;;;19.30;;
80115;SDS011;69423;47.608;19.366;2023-04-24T01:42:12;19.07;;;19.07;;
80115;SDS011;69423;47.608;19.366;2023-04-24T01:42:45;18.27;;;18.23;;
80115;SDS011;69423;47.608;19.366;2023-04-24T01:43:16;19.77;;;19.53;;
80115;SDS011;69423;47.608;19.366;2023-04-24T01:43:48;19.77;;;19.67;;
80115;SDS011;69423;47.608;19.366;2023-04-24T01:44:20;18.57;;;18.53;;
80115;SDS011;69423;47.608;19.366;2023-04-24T01:44:51;19.43;;;19.33;;
80115;SDS011;69423;47.608;19.366;2023-04-24T01:45:22;18.93;;;18.93;;
80115;SDS011;69423;47.608;19.366;2023-04-24T01:45:53;19.13;;;19.13;;
80115;SDS011;69423;47.608;19.366;2023-04-24T01:46:24;19.17;;;19.17;;
80115;SDS011;69423;47.608;19.366;2023-04-24T01:46:55;19.57;;;19.57;;
80115;SDS011;69423;47.608;19.366;2023-04-24T01:47:26;19.57;;;19.57;;
80115;SDS011;69423;47.608;19.366;2023-04-24T01:47:57;19.90;;;19.77;;
80115;SDS011;69423;47.608;19.366;2023-04-24T01:48:28;19.33;;;19.03;;
80115;SDS011;69423;47.608;19.366;2023-04-24T01:49:01;19.07;;;18.90;;
80115;SDS011;69423;47.608;19.366;2023-04-24T01:49:32;19.07;;;19.03;;
80115;SDS011;69423;47.608;19.366;2023-04-24T01:50:04;18.83;;;18.83;;
80115;SDS011;69423;47.608;19.366;2023-04-24T01:50:36;18.63;;;18.60;;
80115;SDS011;69423;47.608;19.366;2023-04-24T01:51:07;18.67;;;18.63;;
80115;SDS011;69423;47.608;19.366;2023-04-24T01:51:38;17.97;;;17.83;;
80115;SDS011;69423;47.608;19.366;2023-04-24T01:52:09;18.23;;;18.20;;
80115;SDS011;69423;47.608;19.366;2023-04-24T01:52:40;18.87;;;18.67;;
80115;SDS011;69423;47.608;19.366;2023-04-24T01:53:11;18.40;;;18.37;;
80115;SDS011;69423;47.608;19.366;2023-04-24T01:53:42;17.97;;;17.97;;
80115;SDS011;69423;47.608;19.366;2023-04-24T01:54:12;18.57;;;18.57;;
80115;SDS011;69423;47.608;19.366;2023-04-24T01:54:43;18.23;;;18.23;;
80115;SDS011;69423;47.608;19.366;2023-04-24T01:55:15;18.97;;;18.90;;
80115;SDS011;69423;47.608;19.366;2023-04-24T01:55:45;19.10;;;19.03;;
80115;SDS011;69423;47.608;19.366;2023-04-24T01:56:17;18.27;;;18.10;;
80115;SDS011;69423;47.608;19.366;2023-04-24T01:56:48;18.00;;;18.00;;
80115;SDS011;69423;47.608;19.366;2023-04-24T01:57:19;18.13;;;18.13;;
80115;SDS011;69423;47.608;19.366;2023-04-24T01:57:51;18.03;;;18.03;;
80115;SDS011;69423;47.608;19.366;2023-04-24T01:58:25;17.80;;;17.80;;
80115;SDS011;69423;47.608;19.366;2023-04-24T01:58:57;18.13;;;18.13;;
80115;SDS011;69423;47.608;19.366;2023-04-24T01:59:30;18.07;;;17.93;;
80115;SDS011;69423;47.608;19.366;2023-04-24T02:00:04;17.93;;;17.90;;
80115;SDS011;69423;47.608;19.366;2023-04-24T02:00:36;17.90;;;17.63;;
80115;SDS011;69423;47.608;19.366;2023-04-24T02:01:07;18.77;;;18.43;;
80115;SDS011;69423;47.608;19.366;2023-04-24T02:01:38;18.27;;;18.17;;
80115;SDS011;69423;47.608;19.366;2023-04-24T02:02:09;18.27;;;17.97;;
80115;SDS011;69423;47.608;19.366;2023-04-24T02:02:40;18.73;;;18.63;;
80115;SDS011;69423;47.608;19.366;2023-04-24T02:03:11;18.37;;;18.37;;
80115;SDS011;69423;47.608;19.366;2023-04-24T02:03:42;18.17;;;18.17;;
80115;SDS011;69423;47.608;19.366;2023-04-24T02:04:13;17.83;;;17.77;;
80115;SDS011;69423;47.608;19.366;2023-04-24T02:04:45;17.70;;;17.70;;
80115;SDS011;69423;47.608;19.366;2023-04-24T02:05:16;17.83;;;17.83;;
80115;SDS011;69423;47.608;19.366;2023-04-24T02:05:47;17.33;;;17.33;;
80115;SDS011;69423;47.608;19.366;2023-04-24T02:06:18;16.73;;;16.73;;
80115;SDS011;69423;47.608;19.366;2023-04-24T02:06:48;17.00;;;16.97;;
80115;SDS011;69423;47.608;19.366;2023-04-24T02:07:20;17.20;;;17.13;;
80115;SDS011;69423;47.608;19.366;2023-04-24T02:07:50;18.30;;;18.23;;
80115;SDS011;69423;47.608;19.366;2023-04-24T02:08:21;17.93;;;17.93;;
80115;SDS011;69423;47.608;19.366;2023-04-24T02:08:52;17.77;;;17.77;;
80115;SDS011;69423;47.608;19.366;2023-04-24T02:09:23;18.90;;;18.80;;
80115;SDS011;69423;47.608;19.366;2023-04-24T02:09:55;19.23;;;18.83;;
80115;SDS011;69423;47.608;19.366;2023-04-24T02:10:26;17.80;;;17.67;;
80115;SDS011;69423;47.608;19.366;2023-04-24T02:10:57;17.50;;;17.47;;
80115;SDS011;69423;47.608;19.366;2023-04-24T02:11:27;17.77;;;17.77;;
80115;SDS011;69423;47.608;19.366;2023-04-24T02:11:58;18.27;;;18.27;;
80115;SDS011;69423;47.608;19.366;2023-04-24T02:12:29;17.37;;;17.37;;
80115;SDS011;69423;47.608;19.366;2023-04-24T02:13:00;18.40;;;18.40;;
80115;SDS011;69423;47.608;19.366;2023-04-24T02:13:31;18.97;;;18.97;;
80115;SDS011;69423;47.608;19.366;2023-04-24T02:14:02;18.90;;;18.87;;
80115;SDS011;69423;47.608;19.366;2023-04-24T02:14:33;18.50;;;18.50;;
80115;SDS011;69423;47.608;19.366;2023-04-24T02:15:04;17.57;;;17.57;;
80115;SDS011;69423;47.608;19.366;2023-04-24T02:15:35;19.43;;;19.20;;
80115;SDS011;69423;47.608;19.366;2023-04-24T02:16:06;18.43;;;18.33;;
80115;SDS011;69423;47.608;19.366;2023-04-24T02:16:37;17.97;;;17.97;;
80115;SDS011;69423;47.608;19.366;2023-04-24T02:17:09;18.30;;;18.20;;
80115;SDS011;69423;47.608;19.366;2023-04-24T02:17:43;19.20;;;19.07;;
80115;SDS011;69423;47.608;19.366;2023-04-24T02:18:14;18.60;;;18.60;;
80115;SDS011;69423;47.608;19.366;2023-04-24T02:18:45;18.27;;;18.27;;
80115;SDS011;69423;47.608;19.366;2023-04-24T02:19:16;18.03;;;17.90;;
80115;SDS011;69423;47.608;19.366;2023-04-24T02:19:47;18.63;;;18.40;;
80115;SDS011;69423;47.608;19.366;2023-04-24T02:20:18;18.70;;;18.70;;
80115;SDS011;69423;47.608;19.366;2023-04-24T02:20:49;18.67;;;18.63;;
80115;SDS011;69423;47.608;19.366;2023-04-24T02:21:20;18.20;;;18.10;;
80115;SDS011;69423;47.608;19.366;2023-04-24T02:21:51;18.37;;;18.13;;
80115;SDS011;69423;47.608;19.366;2023-04-24T02:22:22;18.03;;;18.03;;
80115;SDS011;69423;47.608;19.366;2023-04-24T02:22:53;17.77;;;17.77;;
80115;SDS011;69423;47.608;19.366;2023-04-24T02:23:23;18.63;;;18.63;;
80115;SDS011;69423;47.608;19.366;2023-04-24T02:23:55;17.17;;;17.17;;
80115;SDS011;69423;47.608;19.366;2023-04-24T02:24:27;17.20;;;17.20;;
80115;SDS011;69423;47.608;19.366;2023-04-24T02:24:57;17.27;;;17.17;;
80115;SDS011;69423;47.608;19.366;2023-04-24T02:25:28;18.13;;;17.87;;
80115;SDS011;69423;47.608;19.366;2023-04-24T02:25:59;18.73;;;18.73;;
80115;SDS011;69423;47.608;19.366;2023-04-24T02:26:30;18.17;;;18.17;;
80115;SDS011;69423;47.608;19.366;2023-04-24T02:27:02;18.00;;;17.97;;
80115;SDS011;69423;47.608;19.366;2023-04-24T02:27:33;19.17;;;18.83;;
80115;SDS011;69423;47.608;19.366;2023-04-24T02:28:04;19.70;;;19.20;;
80115;SDS011;69423;47.608;19.366;2023-04-24T02:28:35;19.20;;;18.87;;
80115;SDS011;69423;47.608;19.366;2023-04-24T02:29:05;19.00;;;18.83;;
80115;SDS011;69423;47.608;19.366;2023-04-24T02:29:36;17.80;;;17.73;;
80115;SDS011;69423;47.608;19.366;2023-04-24T02:30:09;17.83;;;17.83;;
80115;SDS011;69423;47.608;19.366;2023-04-24T02:30:40;18.10;;;18.07;;
80115;SDS011;69423;47.608;19.366;2023-04-24T02:31:11;17.87;;;17.63;;
80115;SDS011;69423;47.608;19.366;2023-04-24T02:31:42;18.17;;;17.97;;
80115;SDS011;69423;47.608;19.366;2023-04-24T02:32:12;18.63;;;18.40;;
80115;SDS011;69423;47.608;19.366;2023-04-24T02:32:45;18.30;;;18.13;;
80115;SDS011;69423;47.608;19.366;2023-04-24T02:33:16;18.43;;;18.03;;
80115;SDS011;69423;47.608;19.366;2023-04-24T02:33:47;17.53;;;17.53;;
80115;SDS011;69423;47.608;19.366;2023-04-24T02:34:19;17.87;;;17.87;;
80115;SDS011;69423;47.608;19.366;2023-04-24T02:34:50;19.00;;;19.00;;
80115;SDS011;69423;47.608;19.366;2023-04-24T02:35:21;18.00;;;17.97;;
80115;SDS011;69423;47.608;19.366;2023-04-24T02:35:52;18.83;;;18.73;;
80115;SDS011;69423;47.608;19.366;2023-04-24T02:36:23;18.43;;;18.37;;
80115;SDS011;69423;47.608;19.366;2023-04-24T02:36:54;17.90;;;17.87;;
80115;SDS011;69423;47.608;19.366;2023-04-24T02:37:24;17.43;;;17.43;;
80115;SDS011;69423;47.608;19.366;2023-04-24T02:37:55;18.00;;;18.00;;
80115;SDS011;69423;47.608;19.366;2023-04-24T02:38:26;18.10;;;18.10;;
80115;SDS011;69423;47.608;19.366;2023-04-24T02:38:57;18.47;;;18.47;;
80115;SDS011;69423;47.608;19.366;2023-04-24T02:39:28;18.43;;;18.30;;
80115;SDS011;69423;47.608;19.366;2023-04-24T02:39:59;18.67;;;18.50;;
80115;SDS011;69423;47.608;19.366;2023-04-24T02:40:30;19.17;;;19.00;;
80115;SDS011;69423;47.608;19.366;2023-04-24T02:41:02;18.70;;;18.47;;
80115;SDS011;69423;47.608;19.366;2023-04-24T02:41:36;17.97;;;17.60;;
80115;SDS011;69423;47.608;19.366;2023-04-24T02:42:07;17.40;;;17.33;;
80115;SDS011;69423;47.608;19.366;2023-04-24T02:42:38;18.77;;;18.77;;
80115;SDS011;69423;47.608;19.366;2023-04-24T02:43:09;17.33;;;17.33;;
80115;SDS011;69423;47.608;19.366;2023-04-24T02:43:40;17.67;;;17.67;;
80115;SDS011;69423;47.608;19.366;2023-04-24T02:44:10;18.37;;;18.17;;
80115;SDS011;69423;47.608;19.366;2023-04-24T02:44:41;17.27;;;17.27;;
80115;SDS011;69423;47.608;19.366;2023-04-24T02:45:13;16.97;;;16.97;;
80115;SDS011;69423;47.608;19.366;2023-04-24T02:45:44;18.50;;;18.50;;
80115;SDS011;69423;47.608;19.366;2023-04-24T02:46:14;17.10;;;17.10;;
80115;SDS011;69423;47.608;19.366;2023-04-24T02:46:45;17.20;;;17.20;;
80115;SDS011;69423;47.608;19.366;2023-04-24T02:47:16;17.87;;;17.87;;
80115;SDS011;69423;47.608;19.366;2023-04-24T02:47:47;18.07;;;18.07;;
80115;SDS011;69423;47.608;19.366;2023-04-24T02:48:18;17.20;;;17.20;;
80115;SDS011;69423;47.608;19.366;2023-04-24T02:48:51;17.63;;;17.63;;
80115;SDS011;69423;47.608;19.366;2023-04-24T02:49:22;17.40;;;17.40;;
80115;SDS011;69423;47.608;19.366;2023-04-24T02:49:53;17.17;;;17.17;;
80115;SDS011;69423;47.608;19.366;2023-04-24T02:50:24;17.37;;;17.30;;
80115;SDS011;69423;47.608;19.366;2023-04-24T02:50:54;17.83;;;17.67;;
80115;SDS011;69423;47.608;19.366;2023-04-24T02:51:25;17.63;;;17.40;;
80115;SDS011;69423;47.608;19.366;2023-04-24T02:51:57;17.77;;;17.57;;
80115;SDS011;69423;47.608;19.366;2023-04-24T02:52:28;16.80;;;16.77;;
80115;SDS011;69423;47.608;19.366;2023-04-24T02:52:58;17.50;;;17.40;;
80115;SDS011;69423;47.608;19.366;2023-04-24T02:53:29;19.20;;;19.20;;
80115;SDS011;69423;47.608;19.366;2023-04-24T02:54:01;18.30;;;18.30;;
80115;SDS011;69423;47.608;19.366;2023-04-24T02:54:31;17.47;;;17.47;;
80115;SDS011;69423;47.608;19.366;2023-04-24T02:55:02;18.23;;;18.23;;
80115;SDS011;69423;47.608;19.366;2023-04-24T02:55:33;18.03;;;18.03;;
80115;SDS011;69423;47.608;19.366;2023-04-24T02:56:04;18.80;;;18.80;;
80115;SDS011;69423;47.608;19.366;2023-04-24T02:56:35;18.13;;;18.13;;
80115;SDS011;69423;47.608;19.366;2023-04-24T02:57:06;17.13;;;17.13;;
80115;SDS011;69423;47.608;19.366;2023-04-24T02:57:37;17.47;;;17.47;;
80115;SDS011;69423;47.608;19.366;2023-04-24T02:58:08;17.43;;;17.43;;
80115;SDS011;69423;47.608;19.366;2023-04-24T02:58:39;17.70;;;17.70;;
80115;SDS011;69423;47.608;19.366;2023-04-24T02:59:10;19.00;;;18.87;;
80115;SDS011;69423;47.608;19.366;2023-04-24T02:59:41;19.03;;;18.87;;
80115;SDS011;69423;47.608;19.366;2023-04-24T03:00:12;19.40;;;19.40;;
80115;SDS011;69423;47.608;19.366;2023-04-24T03:00:43;19.47;;;19.47;;